createdAt,value
2022-11-22T00:00:22.023Z,102205.44
2022-11-22T00:02:55.548Z,102206.77
2022-11-22T00:05:09.762Z,102205.90
2022-11-22T00:07:23.332Z,102206.48
2022-11-22T00:09:36.775Z,102204.95
2022-11-22T00:11:50.204Z,102202.58
2022-11-22T00:14:03.509Z,102197.16
2022-11-22T00:16:17.022Z,102191.39
2022-11-22T00:18:30.680Z,102190.65
2022-11-22T00:20:44.271Z,102190.02
2022-11-22T00:22:59.705Z,102185.53
2022-11-22T00:25:14.256Z,102185.27
2022-11-22T00:27:27.772Z,102183.57
2022-11-22T00:29:41.340Z,102181.21
2022-11-22T00:31:54.742Z,102178.82
2022-11-22T00:34:08.183Z,102178.64
2022-11-22T00:36:21.610Z,102179.35
2022-11-22T00:38:35.315Z,102177.05
2022-11-22T00:40:49.253Z,102171.36
2022-11-22T00:43:02.794Z,102166.96
2022-11-22T00:45:16.935Z,102166.75
2022-11-22T00:47:30.422Z,102175.04
2022-11-22T00:49:43.855Z,102172.48
2022-11-22T00:51:57.727Z,102170.34
2022-11-22T00:54:12.593Z,102167.64
2022-11-22T00:56:26.144Z,102169.20
2022-11-22T00:58:39.457Z,102163.84
2022-11-22T01:00:56.560Z,102162.88
2022-11-22T01:03:10.153Z,102161.42
2022-11-22T01:05:23.733Z,102156.42
2022-11-22T01:07:37.052Z,102152.70
2022-11-22T01:09:50.487Z,102156.05
2022-11-22T01:12:03.701Z,102156.55
2022-11-22T01:14:17.019Z,102158.46
2022-11-22T01:16:30.435Z,102156.27
2022-11-22T01:18:43.715Z,102158.88
2022-11-22T01:20:57.466Z,102161.24
2022-11-22T01:23:10.732Z,102160.28
2022-11-22T01:25:24.220Z,102158.02
2022-11-22T01:27:37.546Z,102163.02
2022-11-22T01:29:50.951Z,102165.20
2022-11-22T01:32:04.237Z,102163.17
2022-11-22T01:34:17.570Z,102167.48
2022-11-22T01:36:30.927Z,102164.33
2022-11-22T01:38:44.182Z,102163.20
2022-11-22T01:40:57.531Z,102163.99
2022-11-22T01:43:17.378Z,102168.30
2022-11-22T01:45:48.112Z,102169.70
2022-11-22T01:48:02.583Z,102169.34
2022-11-22T01:50:21.430Z,102173.48
2022-11-22T01:52:37.741Z,102170.00
2022-11-22T01:54:55.138Z,102172.45
2022-11-22T01:57:14.030Z,102172.27
2022-11-22T01:59:30.243Z,102173.76
2022-11-22T02:01:44.073Z,102161.67
2022-11-22T02:04:00.024Z,102152.83
2022-11-22T02:06:14.240Z,102143.89
2022-11-22T02:08:32.419Z,102138.31
2022-11-22T02:10:50.743Z,102134.54
2022-11-22T02:13:06.122Z,102135.92
2022-11-22T02:15:19.669Z,102138.91
2022-11-22T02:17:33.597Z,102138.34
2022-11-22T02:19:49.936Z,102140.20
2022-11-22T02:22:10.432Z,102136.55
2022-11-22T02:24:28.624Z,102137.42
2022-11-22T02:26:42.455Z,102132.55
2022-11-22T02:28:56.677Z,102129.08
2022-11-22T02:31:10.257Z,102128.93
2022-11-22T02:33:23.522Z,102126.11
2022-11-22T02:35:37.013Z,102122.06
2022-11-22T02:38:00.599Z,102113.19
2022-11-22T02:40:17.414Z,102108.02
2022-11-22T02:42:32.233Z,102105.52
2022-11-22T02:44:46.482Z,102102.65
2022-11-22T02:47:00.704Z,102094.67
2022-11-22T02:49:14.004Z,102088.71
2022-11-22T02:51:27.766Z,102077.61
2022-11-22T02:53:41.597Z,102070.84
2022-11-22T02:55:54.951Z,102066.35
2022-11-22T02:58:09.062Z,102065.34
2022-11-22T03:00:24.136Z,102069.31
2022-11-22T03:02:37.381Z,102071.63
2022-11-22T03:04:50.662Z,102070.06
2022-11-22T03:07:05.746Z,102075.95
2022-11-22T03:09:19.070Z,102071.92
2022-11-22T03:11:32.550Z,102067.87
2022-11-22T03:13:45.830Z,102065.20
2022-11-22T03:15:59.038Z,102063.11
2022-11-22T03:18:12.407Z,102059.83
2022-11-22T03:20:25.771Z,102057.27
2022-11-22T03:22:39.135Z,102056.00
2022-11-22T03:24:52.446Z,102054.64
2022-11-22T03:27:05.923Z,102055.25
2022-11-22T03:29:19.310Z,102052.11
2022-11-22T03:31:32.950Z,102053.91
2022-11-22T03:33:46.466Z,102056.66
2022-11-22T03:36:01.789Z,102057.48
2022-11-22T03:38:15.024Z,102060.96
2022-11-22T03:40:30.078Z,102052.73
2022-11-22T03:42:43.471Z,102051.67
2022-11-22T03:44:56.949Z,102054.30
2022-11-22T03:47:10.412Z,102058.21
2022-11-22T03:49:24.828Z,102054.67
2022-11-22T03:51:38.288Z,102054.39
2022-11-22T03:53:51.711Z,102050.77
2022-11-22T03:56:05.168Z,102049.77
2022-11-22T03:58:18.627Z,102045.23
2022-11-22T04:00:32.126Z,102041.44
2022-11-22T04:02:45.430Z,102039.10
2022-11-22T04:04:59.013Z,102041.17
2022-11-22T04:07:12.317Z,102039.74
2022-11-22T04:09:25.798Z,102044.12
2022-11-22T04:11:39.300Z,102046.80
2022-11-22T04:14:08.954Z,102047.27
2022-11-22T04:16:22.226Z,102050.89
2022-11-22T04:18:35.532Z,102054.87
2022-11-22T04:21:04.866Z,102057.39
2022-11-22T04:23:22.234Z,102065.48
2022-11-22T04:25:37.086Z,102067.90
2022-11-22T04:27:50.537Z,102067.31
2022-11-22T04:30:06.148Z,102067.97
2022-11-22T04:32:38.472Z,102061.88
2022-11-22T04:34:51.886Z,102057.55
2022-11-22T04:37:05.838Z,102056.23
2022-11-22T04:39:19.402Z,102052.09
2022-11-22T04:41:32.644Z,102051.99
2022-11-22T04:44:02.309Z,102048.59
2022-11-22T04:46:16.148Z,102043.06
2022-11-22T04:48:29.881Z,102034.17
2022-11-22T04:51:00.009Z,102026.54
2022-11-22T04:53:13.479Z,102025.55
2022-11-22T04:55:27.002Z,102036.13
2022-11-22T04:57:40.354Z,102041.10
2022-11-22T04:59:53.606Z,102040.92
2022-11-22T05:02:06.807Z,102040.92
2022-11-22T05:04:20.378Z,102041.82
2022-11-22T05:06:33.540Z,102046.21
2022-11-22T05:08:46.755Z,102047.59
2022-11-22T05:11:00.699Z,102048.42
2022-11-22T05:13:13.954Z,102046.41
2022-11-22T05:15:27.116Z,102048.09
2022-11-22T05:17:40.538Z,102052.09
2022-11-22T05:19:53.943Z,102052.38
2022-11-22T05:22:07.234Z,102042.08
2022-11-22T05:24:20.608Z,102044.35
2022-11-22T05:26:35.367Z,102043.07
2022-11-22T05:28:48.774Z,102031.08
2022-11-22T05:31:02.060Z,102036.04
2022-11-22T05:33:15.410Z,102049.24
2022-11-22T05:35:28.745Z,102053.09
2022-11-22T05:37:42.051Z,102048.41
2022-11-22T05:39:55.592Z,102049.38
2022-11-22T05:42:08.924Z,102048.33
2022-11-22T05:44:22.187Z,102051.02
2022-11-22T05:46:36.453Z,102048.78
2022-11-22T05:48:50.900Z,102052.06
2022-11-22T05:51:06.749Z,102054.68
2022-11-22T05:53:20.116Z,102054.87
2022-11-22T05:55:33.630Z,102054.69
2022-11-22T05:57:47.034Z,102051.58
2022-11-22T06:00:00.846Z,102049.56
2022-11-22T06:02:14.072Z,102051.06
2022-11-22T06:04:27.607Z,102053.60
2022-11-22T06:06:40.872Z,102054.71
2022-11-22T06:08:54.563Z,102053.71
2022-11-22T06:11:13.310Z,102054.45
2022-11-22T06:13:26.787Z,102053.52
2022-11-22T06:15:40.177Z,102060.27
2022-11-22T06:17:53.919Z,102056.16
2022-11-22T06:20:08.018Z,102050.45
2022-11-22T06:22:24.110Z,102046.05
2022-11-22T06:24:37.509Z,102041.60
2022-11-22T06:26:50.701Z,102039.45
2022-11-22T06:29:04.011Z,102041.38
2022-11-22T06:31:19.036Z,102046.83
2022-11-22T06:33:32.358Z,102052.45
2022-11-22T06:35:45.775Z,102050.14
2022-11-22T06:38:00.816Z,102051.92
2022-11-22T06:40:17.891Z,102056.83
2022-11-22T06:42:31.409Z,102060.97
2022-11-22T06:44:44.972Z,102063.33
2022-11-22T06:46:58.263Z,102056.36
2022-11-22T06:49:11.562Z,102057.40
2022-11-22T06:51:26.329Z,102055.74
2022-11-22T06:53:47.383Z,102045.66
2022-11-22T06:56:06.238Z,102049.17
2022-11-22T06:58:19.522Z,102041.80
2022-11-22T07:00:32.829Z,102039.59
2022-11-22T07:02:46.228Z,102039.02
2022-11-22T07:05:24.019Z,102035.08
2022-11-22T07:07:33.150Z,102026.15
2022-11-22T07:09:46.406Z,102024.13
2022-11-22T07:11:59.648Z,102024.52
2022-11-22T07:14:12.986Z,102028.13
2022-11-22T07:16:26.904Z,102021.65
2022-11-22T07:18:40.423Z,102021.66
2022-11-22T07:20:53.827Z,102013.65
2022-11-22T07:23:06.981Z,102005.67
2022-11-22T07:25:20.409Z,102002.39
2022-11-22T07:27:33.863Z,102001.02
2022-11-22T07:29:47.109Z,102001.46
2022-11-22T07:32:00.437Z,102000.20
2022-11-22T07:34:13.736Z,101993.80
2022-11-22T07:36:30.053Z,101994.70
2022-11-22T07:38:43.691Z,101991.73
2022-11-22T07:40:57.855Z,101989.33
2022-11-22T07:43:11.121Z,101986.91
2022-11-22T07:45:26.331Z,101987.71
2022-11-22T07:47:39.614Z,101981.29
2022-11-22T07:49:52.861Z,101981.43
2022-11-22T07:52:06.493Z,101985.92
2022-11-22T07:54:20.161Z,101983.45
2022-11-22T07:56:33.413Z,101988.59
2022-11-22T07:58:46.709Z,101985.34
2022-11-22T08:01:00.030Z,101984.55
2022-11-22T08:03:17.605Z,101980.80
2022-11-22T08:05:31.684Z,101978.15
2022-11-22T08:07:48.920Z,101977.27
2022-11-22T08:10:02.617Z,101974.46
2022-11-22T08:12:16.087Z,101972.42
2022-11-22T08:14:30.418Z,101969.23
2022-11-22T08:16:43.917Z,101966.52
2022-11-22T08:18:57.127Z,101965.78
2022-11-22T08:21:11.652Z,101960.07
2022-11-22T08:23:25.473Z,101960.55
2022-11-22T08:25:38.841Z,101961.93
2022-11-22T08:27:52.024Z,101959.73
2022-11-22T08:30:05.283Z,101958.97
2022-11-22T08:32:18.991Z,101953.42
2022-11-22T08:34:32.392Z,101949.05
2022-11-22T08:36:45.589Z,101941.72
2022-11-22T08:38:59.165Z,101932.08
2022-11-22T08:41:12.826Z,101924.27
2022-11-22T08:43:26.031Z,101919.76
2022-11-22T08:45:39.512Z,101915.91
2022-11-22T08:47:53.871Z,101912.39
2022-11-22T08:50:07.365Z,101905.71
2022-11-22T08:52:20.641Z,101897.30
2022-11-22T08:54:37.672Z,101889.98
2022-11-22T08:56:51.520Z,101892.19
2022-11-22T08:59:05.116Z,101898.16
2022-11-22T09:01:22.462Z,101892.32
2022-11-22T09:03:35.783Z,101886.52
2022-11-22T09:10:40.251Z,101878.45
2022-11-22T09:12:53.524Z,101874.98
2022-11-22T09:15:07.279Z,101863.22
2022-11-22T09:17:20.483Z,101861.03
2022-11-22T09:19:33.849Z,101863.15
2022-11-22T09:21:47.199Z,101863.10
2022-11-22T09:24:00.561Z,101862.59
2022-11-22T09:26:15.643Z,101860.56
2022-11-22T09:28:29.365Z,101863.83
2022-11-22T09:30:42.685Z,101852.81
2022-11-22T09:32:56.014Z,101849.72
2022-11-22T09:35:09.719Z,101845.58
2022-11-22T09:37:23.180Z,101842.88
2022-11-22T09:39:36.405Z,101837.48
2022-11-22T09:42:11.842Z,101836.30
2022-11-22T09:44:34.192Z,101823.88
2022-11-22T09:46:55.545Z,101826.16
2022-11-22T09:49:30.462Z,101820.39
2022-11-22T09:51:50.292Z,101816.08
2022-11-22T09:54:08.640Z,101808.40
2022-11-22T09:56:25.148Z,101804.25
2022-11-22T09:58:41.554Z,101800.98
2022-11-22T10:00:56.535Z,101797.40
2022-11-22T10:03:14.979Z,101800.79
2022-11-22T10:05:33.954Z,101796.30
2022-11-22T10:07:53.333Z,101797.84
2022-11-22T10:10:13.884Z,101799.31
2022-11-22T10:12:33.007Z,101794.13
2022-11-22T10:14:54.312Z,101798.23
2022-11-22T10:17:21.996Z,101799.77
2022-11-22T10:19:39.156Z,101803.14
2022-11-22T10:21:52.857Z,101798.70
2022-11-22T10:24:06.178Z,101790.33
2022-11-22T10:26:28.536Z,101787.82
2022-11-22T10:28:45.185Z,101789.48
2022-11-22T10:31:05.342Z,101786.11
2022-11-22T10:33:26.796Z,101775.66
2022-11-22T10:35:57.362Z,101775.41
2022-11-22T10:38:39.604Z,101767.48
2022-11-22T10:41:01.044Z,101764.95
2022-11-22T10:43:32.460Z,101759.73
2022-11-22T10:45:50.840Z,101755.45
2022-11-22T10:48:13.727Z,101749.89
2022-11-22T10:50:35.816Z,101743.54
2022-11-22T10:52:58.468Z,101740.73
2022-11-22T10:55:13.564Z,101730.77
2022-11-22T10:57:35.899Z,101728.79
2022-11-22T11:00:10.480Z,101723.02
2022-11-22T11:02:53.292Z,101725.97
2022-11-22T11:05:09.191Z,101723.91
2022-11-22T11:07:24.983Z,101718.85
2022-11-22T11:10:10.345Z,101715.57
2022-11-22T11:12:24.884Z,101718.73
2022-11-22T11:14:43.847Z,101718.37
2022-11-22T11:16:57.981Z,101720.48
2022-11-22T11:19:19.046Z,101712.61
2022-11-22T11:21:33.087Z,101714.39
2022-11-22T11:23:46.569Z,101712.23
2022-11-22T11:26:17.398Z,101705.65
2022-11-22T11:28:32.459Z,101705.41
2022-11-22T11:30:49.055Z,101704.45
2022-11-22T11:33:02.730Z,101697.31
2022-11-22T11:35:20.896Z,101693.66
2022-11-22T11:37:40.090Z,101685.58
2022-11-22T11:39:54.244Z,101677.30
2022-11-22T11:42:24.359Z,101677.15
2022-11-22T11:44:38.937Z,101671.32
2022-11-22T11:46:54.967Z,101668.48
2022-11-22T11:49:19.754Z,101656.42
2022-11-22T11:51:39.476Z,101651.83
2022-11-22T11:54:02.362Z,101653.32
2022-11-22T11:56:41.669Z,101663.73
2022-11-22T11:59:01.082Z,101669.20
2022-11-22T12:01:24.398Z,101670.08
2022-11-22T12:03:38.219Z,101665.00
2022-11-22T12:05:51.701Z,101650.09
2022-11-22T12:08:05.972Z,101640.75
2022-11-22T12:10:44.839Z,101631.10
2022-11-22T12:13:04.667Z,101627.99
2022-11-22T12:15:24.680Z,101625.07
2022-11-22T12:17:46.620Z,101622.14
2022-11-22T12:20:06.421Z,101623.27
2022-11-22T12:22:48.076Z,101623.48
2022-11-22T12:25:30.861Z,101624.39
2022-11-22T12:27:36.437Z,101630.31
2022-11-22T12:29:49.839Z,101628.06
2022-11-22T12:32:10.119Z,101624.40
2022-11-22T12:34:28.433Z,101627.70
2022-11-22T12:36:47.560Z,101621.50
2022-11-22T12:39:03.586Z,101610.34
2022-11-22T12:41:19.816Z,101600.38
2022-11-22T12:43:39.622Z,101595.56
2022-11-22T12:45:56.100Z,101584.16
2022-11-22T12:48:13.392Z,101585.69
2022-11-22T12:50:32.871Z,101581.23
2022-11-22T12:52:51.456Z,101581.52
2022-11-22T12:55:12.392Z,101593.12
2022-11-22T12:57:29.353Z,101593.94
2022-11-22T12:59:47.783Z,101594.56
2022-11-22T13:02:08.530Z,101585.52
2022-11-22T13:04:29.351Z,101579.93
2022-11-22T13:06:52.141Z,101566.36
2022-11-22T13:09:09.959Z,101565.46
2022-11-22T13:11:26.935Z,101557.48
2022-11-22T13:13:45.703Z,101561.17
2022-11-22T13:16:02.380Z,101562.65
2022-11-22T13:18:19.236Z,101559.15
2022-11-22T13:20:42.789Z,101556.36
2022-11-22T13:23:06.715Z,101542.50
2022-11-22T13:25:44.586Z,101540.88
2022-11-22T13:28:00.522Z,101529.15
2022-11-22T13:30:26.174Z,101521.04
2022-11-22T13:32:45.162Z,101526.42
2022-11-22T13:35:23.488Z,101535.20
2022-11-22T13:37:39.115Z,101529.16
2022-11-22T13:39:53.753Z,101527.12
2022-11-22T13:42:15.421Z,101531.00
2022-11-22T13:45:09.209Z,101535.13
2022-11-22T13:47:48.005Z,101521.86
2022-11-22T13:50:01.668Z,101525.50
2022-11-22T13:52:53.204Z,101521.85
2022-11-22T13:55:20.312Z,101520.81
2022-11-22T13:57:39.124Z,101501.43
2022-11-22T14:00:13.443Z,101506.61
2022-11-22T14:02:30.849Z,101506.56
2022-11-22T14:04:48.853Z,101504.52
2022-11-22T14:07:05.662Z,101494.48
2022-11-22T14:09:49.315Z,101496.35
2022-11-22T14:12:20.598Z,101486.66
2022-11-22T14:14:43.819Z,101481.33
2022-11-22T14:17:10.078Z,101471.82
2022-11-22T14:19:43.991Z,101468.77
2022-11-22T14:22:21.833Z,101470.93
2022-11-22T14:24:50.707Z,101468.23
2022-11-22T14:27:12.783Z,101461.92
2022-11-22T14:29:54.158Z,101457.88
2022-11-22T14:32:17.771Z,101452.33
2022-11-22T14:34:33.034Z,101443.75
2022-11-22T14:36:46.870Z,101437.70
2022-11-22T14:39:00.187Z,101425.27
2022-11-22T14:41:44.289Z,101417.51
2022-11-22T14:44:01.659Z,101414.75
2022-11-22T14:46:51.198Z,101410.88
2022-11-22T14:49:03.859Z,101406.45
2022-11-22T14:51:32.791Z,101395.92
2022-11-22T14:53:52.997Z,101393.21
2022-11-22T14:56:17.222Z,101381.57
2022-11-22T14:58:32.935Z,101382.27
2022-11-22T15:01:02.648Z,101377.51
2022-11-22T15:03:35.716Z,101370.15
2022-11-22T15:09:12.943Z,101362.13
2022-11-22T15:09:16.271Z,101355.77
2022-11-22T15:11:44.621Z,101352.29
2022-11-22T15:14:27.147Z,101353.43
2022-11-22T15:59:32.751Z,101303.73
2022-11-22T16:01:49.414Z,101297.73
2022-11-22T16:04:04.364Z,101303.12
2022-11-22T16:06:21.776Z,101322.35
2022-11-22T16:08:35.274Z,101316.14
2022-11-22T16:10:52.187Z,101322.59
2022-11-22T16:13:17.839Z,101319.02
2022-11-22T16:15:39.008Z,101310.83
2022-11-22T16:17:59.836Z,101319.17
2022-11-22T16:20:36.171Z,101316.05
2022-11-22T16:22:49.448Z,101324.11
2022-11-22T16:25:34.022Z,101318.47
2022-11-22T16:27:53.607Z,101318.16
2022-11-22T16:30:07.157Z,101314.05
2022-11-22T16:32:21.281Z,101319.84
2022-11-22T16:34:34.891Z,101318.00
2022-11-22T16:36:48.934Z,101314.80
2022-11-22T16:39:03.189Z,101311.44
2022-11-22T16:41:21.898Z,101322.61
2022-11-22T16:43:39.151Z,101311.93
2022-11-22T16:45:52.585Z,101314.63
2022-11-22T16:48:30.845Z,101308.52
2022-11-22T16:50:46.339Z,101283.77
2022-11-22T16:53:02.947Z,101279.53
2022-11-22T16:55:20.548Z,101272.95
2022-11-22T16:57:33.894Z,101275.11
2022-11-22T16:59:47.160Z,101275.95
2022-11-22T17:02:00.487Z,101258.67
2022-11-22T17:04:20.037Z,101243.04
2022-11-22T17:06:34.649Z,101220.02
2022-11-22T17:08:48.129Z,101195.54
2022-11-22T17:11:01.589Z,101172.65
2022-11-22T17:13:20.097Z,101154.88
2022-11-22T17:15:33.988Z,101134.23
2022-11-22T17:17:47.215Z,101124.08
2022-11-22T17:20:00.544Z,101108.50
2022-11-22T17:22:15.814Z,101099.04
2022-11-22T17:24:29.355Z,101107.37
2022-11-22T17:26:43.070Z,101106.35
2022-11-22T17:28:56.887Z,101104.33
2022-11-22T17:31:15.789Z,101113.52
2022-11-22T17:33:29.355Z,101117.00
2022-11-22T17:35:43.262Z,101107.68
2022-11-22T17:37:59.126Z,101092.11
2022-11-22T17:40:16.456Z,101056.05
2022-11-22T17:42:29.749Z,101053.41
2022-11-22T17:44:45.123Z,101063.38
2022-11-22T17:46:58.485Z,101059.48
2022-11-22T17:49:16.029Z,101068.46
2022-11-22T17:51:29.916Z,101071.61
2022-11-22T17:53:46.698Z,101054.36
2022-11-22T17:56:10.346Z,101058.02
2022-11-22T17:58:24.736Z,101040.88
2022-11-22T18:00:38.055Z,101026.41
2022-11-22T18:02:51.531Z,101032.36
2022-11-22T18:05:07.267Z,101043.67
2022-11-22T18:07:22.185Z,101031.58
2022-11-22T18:09:36.526Z,101042.48
2022-11-22T18:11:50.496Z,101053.19
2022-11-22T18:14:03.867Z,101058.91
2022-11-22T18:16:19.509Z,101045.62
2022-11-22T18:18:55.836Z,101027.28
2022-11-22T18:21:14.148Z,101019.57
2022-11-22T18:23:34.883Z,101021.80
2022-11-22T18:25:48.795Z,101017.60
2022-11-22T18:28:02.271Z,101012.53
2022-11-22T18:30:19.154Z,101028.54
2022-11-22T18:32:32.488Z,101026.60
2022-11-22T18:34:45.859Z,101031.73
2022-11-22T18:37:02.649Z,101038.80
2022-11-22T18:39:16.654Z,101040.79
2022-11-22T18:41:30.108Z,101052.38
2022-11-22T18:43:43.532Z,101048.74
2022-11-22T18:46:02.730Z,101039.59
2022-11-22T18:48:16.018Z,101019.44
2022-11-22T18:50:29.464Z,101004.55
2022-11-22T18:52:44.090Z,101012.92
2022-11-22T18:54:57.825Z,101038.93
2022-11-22T18:57:11.087Z,101047.95
2022-11-22T18:59:24.401Z,101049.45
2022-11-22T19:01:38.174Z,101046.13
2022-11-22T19:03:51.774Z,101039.98
2022-11-22T19:06:06.511Z,101036.29
2022-11-22T19:08:19.735Z,101030.71
2022-11-22T19:10:33.394Z,101036.09
2022-11-22T19:12:46.779Z,101034.16
2022-11-22T19:15:15.848Z,101048.31
2022-11-22T19:17:29.537Z,101044.00
2022-11-22T19:19:42.803Z,101040.66
2022-11-22T19:21:56.083Z,101028.27
2022-11-22T19:24:09.936Z,101037.98
2022-11-22T19:26:24.924Z,101040.75
2022-11-22T19:28:38.870Z,101038.28
2022-11-22T19:30:52.158Z,101059.41
2022-11-22T19:33:05.419Z,101056.25
2022-11-22T19:35:18.639Z,101040.05
2022-11-22T19:37:32.027Z,101033.30
2022-11-22T19:39:45.806Z,101048.52
2022-11-22T19:41:59.148Z,101052.00
2022-11-22T19:44:12.753Z,101046.61
2022-11-22T19:46:26.313Z,101053.92
2022-11-22T19:48:45.397Z,101043.65
2022-11-22T19:51:01.045Z,101054.77
2022-11-22T19:53:14.840Z,101062.77
2022-11-22T19:55:28.186Z,101075.42
2022-11-22T19:57:41.445Z,101076.56
2022-11-22T19:59:59.805Z,101077.89
2022-11-22T20:02:14.689Z,101080.85
2022-11-22T20:04:28.146Z,101090.95
2022-11-22T20:06:44.843Z,101110.77
2022-11-22T20:09:07.140Z,101115.34
2022-11-22T20:11:22.270Z,101148.14
2022-11-22T20:13:37.323Z,101148.76
2022-11-22T20:15:50.775Z,101151.85
2022-11-22T20:18:04.194Z,101157.02
2022-11-22T20:20:18.162Z,101168.08
2022-11-22T20:22:31.603Z,101179.55
2022-11-22T20:24:45.043Z,101185.57
2022-11-22T20:26:58.376Z,101185.48
2022-11-22T20:29:15.400Z,101185.48
2022-11-22T20:31:28.922Z,101185.77
2022-11-22T20:33:44.399Z,101192.91
2022-11-22T20:36:04.335Z,101196.06
2022-11-22T20:38:17.707Z,101204.52
2022-11-22T20:40:33.869Z,101215.79
2022-11-22T20:42:47.243Z,101223.77
2022-11-22T20:45:00.771Z,101231.97
2022-11-22T20:47:14.133Z,101228.60
2022-11-22T20:49:29.352Z,101226.46
2022-11-22T20:51:43.860Z,101221.58
2022-11-22T20:53:57.523Z,101220.79
2022-11-22T20:56:11.939Z,101219.77
2022-11-22T20:58:25.437Z,101233.58
2022-11-22T21:00:38.992Z,101238.11
2022-11-22T21:02:52.332Z,101252.25
2022-11-22T21:05:06.355Z,101255.94
2022-11-22T21:07:19.834Z,101260.10
2022-11-22T21:09:33.479Z,101264.20
2022-11-22T21:11:47.006Z,101267.58
2022-11-22T21:14:01.070Z,101266.09
2022-11-22T21:16:23.467Z,101268.64
2022-11-22T21:18:37.730Z,101280.87
2022-11-22T21:20:51.163Z,101285.31
2022-11-22T21:23:04.432Z,101291.05
2022-11-22T21:25:18.477Z,101292.87
2022-11-22T21:27:31.724Z,101295.31
2022-11-22T21:29:45.070Z,101299.46
2022-11-22T21:31:58.340Z,101302.27
2022-11-22T21:34:11.974Z,101302.64
2022-11-22T21:36:25.531Z,101302.30
2022-11-22T21:38:39.616Z,101303.89
2022-11-22T21:41:17.276Z,101307.77
2022-11-22T21:43:33.703Z,101316.56
2022-11-22T21:45:47.095Z,101323.85
2022-11-22T21:48:00.402Z,101335.09
2022-11-22T21:50:14.753Z,101338.16
2022-11-22T21:52:27.953Z,101338.70
2022-11-22T21:54:42.102Z,101346.21
2022-11-22T21:56:58.490Z,101355.19
2022-11-22T21:59:16.022Z,101361.52
2022-11-22T22:01:29.875Z,101362.65
2022-11-22T22:03:43.343Z,101373.55
2022-11-22T22:05:57.376Z,101377.55
2022-11-22T22:08:11.083Z,101384.69
2022-11-22T22:10:24.622Z,101388.73
2022-11-22T22:12:37.983Z,101397.12
2022-11-22T22:14:51.443Z,101414.45
2022-11-22T22:17:05.526Z,101421.02
2022-11-22T22:19:19.231Z,101420.44
2022-11-22T22:21:32.443Z,101422.36
2022-11-22T22:23:46.515Z,101429.83
2022-11-22T22:26:03.497Z,101432.36
2022-11-22T22:28:16.839Z,101433.91
2022-11-22T22:30:30.148Z,101439.05
2022-11-22T22:32:43.573Z,101441.17
2022-11-22T22:34:57.044Z,101446.52
2022-11-22T22:37:10.607Z,101444.21
2022-11-22T22:39:23.903Z,101449.17
2022-11-22T22:41:37.311Z,101455.15
2022-11-22T22:43:51.684Z,101456.31
2022-11-22T22:46:08.719Z,101458.65
2022-11-22T22:48:22.815Z,101461.55
2022-11-22T22:50:35.978Z,101463.13
2022-11-22T22:52:49.413Z,101467.69
2022-11-22T22:55:02.710Z,101473.68
2022-11-22T22:57:15.987Z,101486.27
2022-11-22T22:59:29.551Z,101490.36
2022-11-22T23:01:42.983Z,101491.92
2022-11-22T23:03:58.529Z,101500.95
2022-11-22T23:06:15.901Z,101513.30
2022-11-22T23:08:29.135Z,101522.46
2022-11-22T23:10:43.447Z,101524.38
2022-11-22T23:12:56.929Z,101525.63
2022-11-22T23:15:12.438Z,101519.52
2022-11-22T23:17:27.020Z,101520.88
2022-11-22T23:19:40.437Z,101536.32
2022-11-22T23:21:54.373Z,101547.91
2022-11-22T23:24:08.304Z,101550.91
2022-11-22T23:26:21.685Z,101551.45
2022-11-22T23:28:35.514Z,101550.34
2022-11-22T23:30:49.152Z,101559.45
2022-11-22T23:33:02.515Z,101560.56
2022-11-22T23:35:16.256Z,101563.95
2022-11-22T23:37:29.949Z,101570.45
2022-11-22T23:39:43.303Z,101574.27
2022-11-22T23:41:56.575Z,101580.22
2022-11-22T23:44:10.228Z,101592.44
2022-11-22T23:46:23.910Z,101600.56
2022-11-22T23:48:37.215Z,101603.90
2022-11-22T23:50:50.509Z,101611.77
2022-11-22T23:53:03.852Z,101623.86
2022-11-22T23:55:17.567Z,101634.78
2022-11-22T23:57:31.537Z,101646.24
2022-11-22T23:59:44.790Z,101655.45
